createdAt,value
2022-11-26T00:02:21.380Z,7.70
2022-11-26T00:05:25.373Z,7.70
2022-11-26T00:08:31.730Z,7.70
2022-11-26T00:11:34.655Z,7.70
2022-11-26T00:14:37.820Z,7.70
2022-11-26T00:17:42.419Z,7.70
2022-11-26T00:20:46.453Z,7.70
2022-11-26T00:23:49.624Z,7.70
2022-11-26T00:26:52.747Z,7.70
2022-11-26T00:29:55.960Z,7.70
2022-11-26T00:33:00.456Z,7.70
2022-11-26T00:36:07.952Z,7.70
2022-11-26T00:39:16.714Z,7.70
2022-11-26T00:42:20.375Z,7.70
2022-11-26T00:45:25.479Z,7.70
2022-11-26T00:48:29.750Z,7.70
2022-11-26T00:51:32.807Z,7.70
2022-11-26T00:54:35.971Z,7.70
2022-11-26T00:57:39.128Z,7.70
2022-11-26T01:00:42.120Z,7.70
2022-11-26T01:03:46.618Z,7.70
2022-11-26T01:06:49.579Z,7.70
2022-11-26T01:09:52.531Z,7.70
2022-11-26T01:12:56.805Z,7.70
2022-11-26T01:16:01.857Z,7.70
2022-11-26T01:19:11.738Z,7.70
2022-11-26T01:22:21.308Z,7.70
2022-11-26T01:25:26.677Z,7.70
2022-11-26T01:28:29.675Z,7.70
2022-11-26T01:31:33.235Z,7.70
2022-11-26T01:34:37.943Z,7.70
2022-11-26T01:37:41.318Z,7.70
2022-11-26T01:41:00.605Z,7.70
2022-11-26T01:44:05.467Z,7.70
2022-11-26T01:47:22.408Z,7.70
2022-11-26T01:50:53.631Z,7.70
2022-11-26T01:53:59.992Z,7.80
2022-11-26T01:57:09.988Z,7.70
2022-11-26T02:00:14.172Z,7.70
2022-11-26T02:03:17.409Z,7.70
2022-11-26T02:06:25.820Z,7.70
2022-11-26T02:09:30.356Z,7.80
2022-11-26T02:12:33.715Z,7.80
2022-11-26T02:15:46.119Z,7.80
2022-11-26T02:19:00.018Z,7.80
2022-11-26T02:22:13.262Z,7.80
2022-11-26T02:25:21.026Z,7.80
2022-11-26T02:28:43.124Z,7.80
2022-11-26T02:31:52.804Z,7.80
2022-11-26T02:34:59.937Z,7.80
2022-11-26T02:38:06.432Z,7.80
2022-11-26T02:41:09.355Z,7.80
2022-11-26T02:44:12.872Z,7.80
2022-11-26T02:47:21.055Z,7.90
2022-11-26T02:50:28.465Z,7.90
2022-11-26T02:53:33.851Z,7.90
2022-11-26T02:56:37.253Z,7.90
2022-11-26T02:59:40.741Z,7.90
2022-11-26T03:02:48.502Z,7.90
2022-11-26T03:05:54.897Z,7.90
2022-11-26T03:08:58.014Z,7.90
2022-11-26T03:12:01.008Z,7.90
2022-11-26T03:15:04.423Z,7.90
2022-11-26T03:18:08.892Z,7.90
2022-11-26T03:21:11.781Z,7.90
2022-11-26T03:24:14.768Z,7.90
2022-11-26T03:27:17.651Z,7.90
2022-11-26T03:30:20.883Z,7.90
2022-11-26T03:33:25.138Z,7.90
2022-11-26T03:36:28.129Z,7.90
2022-11-26T03:39:31.220Z,7.90
2022-11-26T03:42:34.176Z,7.90
2022-11-26T03:45:37.118Z,7.90
2022-11-26T03:48:41.560Z,7.90
2022-11-26T03:51:44.535Z,7.90
2022-11-26T03:54:47.431Z,8.00
2022-11-26T03:57:50.352Z,8.00
2022-11-26T04:00:53.342Z,8.00
2022-11-26T04:03:57.618Z,8.00
2022-11-26T04:07:00.566Z,8.00
2022-11-26T04:10:03.811Z,8.00
2022-11-26T04:13:06.766Z,8.00
2022-11-26T04:16:10.472Z,8.00
2022-11-26T04:19:14.896Z,8.00
2022-11-26T04:22:17.789Z,8.00
2022-11-26T04:25:20.724Z,8.00
2022-11-26T04:28:23.638Z,8.00
2022-11-26T04:31:26.609Z,8.00
2022-11-26T04:34:31.062Z,8.10
2022-11-26T04:37:34.057Z,8.10
2022-11-26T04:40:37.391Z,8.10
2022-11-26T04:43:40.745Z,8.10
2022-11-26T04:46:43.660Z,8.10
2022-11-26T04:49:47.947Z,8.10
2022-11-26T04:52:50.876Z,8.10
2022-11-26T04:55:54.331Z,8.10
2022-11-26T04:58:57.238Z,8.20
2022-11-26T05:02:00.369Z,8.10
2022-11-26T05:05:04.969Z,8.10
2022-11-26T05:08:08.028Z,8.10
2022-11-26T05:11:10.902Z,8.10
2022-11-26T05:14:13.808Z,8.10
2022-11-26T05:17:16.734Z,8.20
2022-11-26T05:20:21.202Z,8.20
2022-11-26T05:23:24.132Z,8.20
2022-11-26T05:26:27.385Z,8.20
2022-11-26T05:29:31.706Z,8.20
2022-11-26T05:32:34.629Z,8.20
2022-11-26T05:35:39.352Z,8.20
2022-11-26T05:38:42.319Z,8.20
2022-11-26T05:41:45.234Z,8.10
2022-11-26T05:44:48.111Z,8.20
2022-11-26T05:47:51.018Z,8.20
2022-11-26T05:50:59.898Z,8.10
2022-11-26T05:54:02.963Z,8.20
2022-11-26T05:57:05.957Z,8.10
2022-11-26T06:00:10.487Z,8.10
2022-11-26T06:03:17.056Z,8.10
2022-11-26T06:06:24.417Z,8.10
2022-11-26T06:09:27.361Z,8.10
2022-11-26T06:12:30.331Z,8.10
2022-11-26T06:15:33.256Z,8.10
2022-11-26T06:18:37.783Z,8.10
2022-11-26T06:21:42.117Z,8.10
2022-11-26T06:24:45.037Z,8.10
2022-11-26T06:27:48.055Z,8.10
2022-11-26T06:30:51.091Z,8.10
2022-11-26T06:33:55.145Z,8.10
2022-11-26T06:37:00.596Z,8.20
2022-11-26T06:40:03.751Z,8.10
2022-11-26T06:43:06.665Z,8.20
2022-11-26T06:46:11.146Z,8.20
2022-11-26T06:49:14.124Z,8.20
2022-11-26T06:52:18.403Z,8.20
2022-11-26T06:55:21.843Z,8.20
2022-11-26T06:58:26.231Z,8.20
2022-11-26T07:01:29.441Z,8.20
2022-11-26T07:04:32.437Z,8.20
2022-11-26T07:07:39.292Z,8.20
2022-11-26T07:10:47.509Z,8.20
2022-11-26T07:13:52.339Z,8.30
2022-11-26T07:16:55.232Z,8.20
2022-11-26T07:19:58.261Z,8.20
2022-11-26T07:23:04.555Z,8.20
2022-11-26T07:26:09.059Z,8.20
2022-11-26T07:29:11.999Z,8.20
2022-11-26T07:32:14.962Z,8.20
2022-11-26T07:35:17.991Z,8.20
2022-11-26T07:38:22.316Z,8.20
2022-11-26T07:41:26.105Z,8.20
2022-11-26T07:44:29.014Z,8.20
2022-11-26T07:47:31.931Z,8.30
2022-11-26T07:50:34.796Z,8.20
2022-11-26T07:53:39.073Z,8.20
2022-11-26T07:56:43.465Z,8.30
2022-11-26T07:59:46.356Z,8.30
2022-11-26T08:02:49.289Z,8.30
2022-11-26T08:05:52.278Z,8.30
2022-11-26T08:08:56.757Z,8.30
2022-11-26T08:11:59.678Z,8.40
2022-11-26T08:15:02.711Z,8.30
2022-11-26T08:18:05.749Z,8.40
2022-11-26T08:21:08.837Z,8.40
2022-11-26T08:24:15.774Z,8.40
2022-11-26T08:27:18.707Z,8.40
2022-11-26T08:30:21.824Z,8.50
2022-11-26T08:33:24.757Z,8.50
2022-11-26T08:36:28.473Z,8.50
2022-11-26T08:39:32.847Z,8.50
2022-11-26T08:42:35.799Z,8.50
2022-11-26T08:45:38.724Z,8.50
2022-11-26T08:48:42.207Z,8.50
2022-11-26T08:51:45.387Z,8.50
2022-11-26T08:54:49.848Z,8.60
2022-11-26T08:57:53.107Z,8.60
2022-11-26T09:00:56.790Z,8.60
2022-11-26T09:04:01.443Z,8.60
2022-11-26T09:07:04.367Z,8.60
2022-11-26T09:10:10.100Z,8.60
2022-11-26T09:13:15.143Z,8.60
2022-11-26T09:16:20.431Z,8.60
2022-11-26T09:19:23.557Z,8.70
2022-11-26T09:22:26.524Z,8.60
2022-11-26T09:25:30.819Z,8.70
2022-11-26T09:28:33.774Z,8.60
2022-11-26T09:31:42.742Z,8.70
2022-11-26T09:34:58.144Z,8.70
2022-11-26T09:38:01.080Z,8.70
2022-11-26T09:41:11.374Z,8.70
2022-11-26T09:44:26.959Z,8.70
2022-11-26T09:47:34.395Z,8.70
2022-11-26T09:50:38.567Z,8.70
2022-11-26T09:53:45.118Z,8.70
2022-11-26T09:56:51.396Z,8.60
2022-11-26T09:59:56.468Z,8.70
2022-11-26T10:02:59.951Z,8.60
2022-11-26T10:06:07.490Z,8.60
2022-11-26T10:09:41.004Z,8.60
2022-11-26T10:13:17.487Z,8.60
2022-11-26T10:16:25.227Z,8.60
2022-11-26T10:19:33.724Z,8.60
2022-11-26T10:22:43.634Z,8.60
2022-11-26T10:25:50.675Z,8.60
2022-11-26T10:29:07.422Z,8.60
2022-11-26T10:32:15.961Z,8.60
2022-11-26T10:35:21.523Z,8.70
2022-11-26T10:38:24.420Z,8.60
2022-11-26T10:41:31.290Z,8.70
2022-11-26T10:44:40.373Z,8.70
2022-11-26T10:47:43.575Z,8.70
2022-11-26T10:51:00.277Z,8.60
2022-11-26T10:54:07.466Z,8.60
2022-11-26T10:57:16.437Z,8.60
2022-11-26T11:00:45.706Z,8.50
2022-11-26T11:04:08.497Z,8.50
2022-11-26T11:07:30.936Z,8.50
2022-11-26T11:10:35.515Z,8.40
2022-11-26T11:13:42.917Z,8.50
2022-11-26T11:16:47.294Z,8.40
2022-11-26T11:19:50.402Z,8.40
2022-11-26T11:23:06.697Z,8.40
2022-11-26T11:26:16.725Z,8.40
2022-11-26T11:29:32.703Z,8.40
2022-11-26T11:32:40.169Z,8.40
2022-11-26T11:35:43.339Z,8.50
2022-11-26T11:38:48.900Z,8.50
2022-11-26T11:41:52.100Z,8.50
2022-11-26T11:44:55.258Z,8.50
2022-11-26T11:48:06.891Z,8.50
2022-11-26T11:51:17.475Z,8.50
2022-11-26T11:54:26.002Z,8.50
2022-11-26T11:57:43.342Z,8.60
2022-11-26T12:00:53.408Z,8.60
2022-11-26T12:04:19.946Z,8.60
2022-11-26T12:07:38.410Z,8.60
2022-11-26T12:10:51.238Z,8.60
2022-11-26T12:13:58.616Z,8.70
2022-11-26T12:17:07.506Z,8.70
2022-11-26T12:20:21.093Z,8.70
2022-11-26T12:23:30.793Z,8.70
2022-11-26T12:26:38.266Z,8.70
2022-11-26T12:29:46.751Z,8.70
2022-11-26T12:32:54.681Z,8.80
2022-11-26T12:36:04.675Z,8.80
2022-11-26T12:39:19.086Z,8.80
2022-11-26T12:42:29.123Z,8.70
2022-11-26T12:45:47.848Z,8.70
2022-11-26T12:48:55.893Z,8.70
2022-11-26T12:52:18.421Z,8.80
2022-11-26T12:55:29.182Z,8.70
2022-11-26T12:58:40.476Z,8.80
2022-11-26T13:01:43.414Z,8.80
2022-11-26T13:04:46.491Z,8.80
2022-11-26T13:08:05.438Z,8.80
2022-11-26T13:11:25.149Z,8.80
2022-11-26T13:14:41.403Z,8.70
2022-11-26T13:17:48.706Z,8.70
2022-11-26T13:21:05.199Z,8.70
2022-11-26T13:24:34.075Z,8.70
2022-11-26T13:27:50.484Z,8.70
2022-11-26T13:31:06.794Z,8.60
2022-11-26T13:34:32.434Z,8.50
2022-11-26T13:37:50.039Z,8.50
2022-11-26T13:41:32.077Z,8.50
2022-11-26T13:45:12.633Z,8.50
2022-11-26T13:48:18.394Z,8.50
2022-11-26T13:51:32.154Z,8.50
2022-11-26T13:54:39.554Z,8.40
2022-11-26T13:57:47.584Z,8.40
2022-11-26T14:00:50.633Z,8.40
2022-11-26T14:03:53.629Z,8.40
2022-11-26T14:07:19.922Z,8.30
2022-11-26T14:10:44.285Z,8.30
2022-11-26T14:14:29.459Z,8.30
2022-11-26T14:17:52.470Z,8.30
2022-11-26T14:21:13.212Z,8.20
2022-11-26T14:24:55.165Z,8.30
2022-11-26T14:27:59.563Z,8.30
2022-11-26T14:31:15.237Z,8.30
2022-11-26T14:34:25.685Z,8.30
2022-11-26T14:37:30.556Z,8.30
2022-11-26T14:40:35.184Z,8.30
2022-11-26T14:43:38.310Z,8.30
2022-11-26T14:46:44.396Z,8.30
2022-11-26T14:49:54.183Z,8.30
2022-11-26T14:53:00.810Z,8.20
2022-11-26T14:56:04.336Z,8.20
2022-11-26T14:59:12.472Z,8.20
2022-11-26T15:02:24.052Z,8.20
2022-11-26T15:05:28.915Z,8.20
2022-11-26T15:08:31.805Z,8.20
2022-11-26T15:11:37.745Z,8.20
2022-11-26T15:14:43.817Z,8.30
2022-11-26T15:17:53.044Z,8.20
2022-11-26T15:20:56.884Z,8.20
2022-11-26T15:24:03.454Z,8.20
2022-11-26T15:27:06.335Z,8.20
2022-11-26T15:30:21.216Z,8.20
2022-11-26T15:33:26.672Z,8.10
2022-11-26T15:36:29.631Z,8.10
2022-11-26T15:39:32.942Z,8.10
2022-11-26T15:42:36.185Z,8.00
2022-11-26T15:45:41.644Z,8.00
2022-11-26T15:48:53.198Z,7.90
2022-11-26T15:51:59.189Z,7.90
2022-11-26T15:55:13.636Z,7.80
2022-11-26T15:58:22.707Z,7.80
2022-11-26T16:01:28.348Z,7.80
2022-11-26T16:04:45.515Z,7.80
2022-11-26T16:07:58.638Z,7.80
2022-11-26T16:11:08.632Z,7.80
2022-11-26T16:14:29.046Z,7.80
2022-11-26T16:17:32.006Z,7.80
2022-11-26T16:20:36.344Z,7.80
2022-11-26T16:23:39.381Z,7.80
2022-11-26T16:26:54.824Z,7.90
2022-11-26T16:29:57.811Z,7.80
2022-11-26T16:33:00.746Z,7.90
2022-11-26T16:36:22.698Z,7.80
2022-11-26T16:39:30.035Z,7.90
2022-11-26T16:42:33.811Z,7.90
2022-11-26T16:45:36.980Z,7.80
2022-11-26T16:48:41.236Z,7.90
2022-11-26T16:51:45.471Z,7.90
2022-11-26T16:54:49.039Z,7.90
2022-11-26T16:57:53.753Z,7.90
2022-11-26T17:00:57.799Z,7.90
2022-11-26T17:04:00.732Z,7.90
2022-11-26T17:07:04.990Z,7.90
2022-11-26T17:10:12.097Z,7.90
2022-11-26T17:13:15.088Z,7.90
2022-11-26T17:16:20.551Z,7.90
2022-11-26T17:19:23.778Z,7.90
2022-11-26T17:22:28.078Z,7.90
2022-11-26T17:25:31.044Z,7.90
2022-11-26T17:28:33.970Z,7.90
2022-11-26T17:31:37.343Z,8.00
2022-11-26T17:34:40.312Z,8.00
2022-11-26T17:37:44.931Z,8.00
2022-11-26T17:40:49.297Z,8.00
2022-11-26T17:43:52.226Z,8.10
2022-11-26T17:50:21.686Z,8.00
2022-11-26T17:53:25.942Z,8.00
2022-11-26T17:56:29.006Z,8.00
2022-11-26T17:59:32.510Z,8.00
2022-11-26T18:02:35.483Z,8.10
2022-11-26T18:05:42.047Z,8.00
2022-11-26T18:08:47.147Z,8.10
2022-11-26T18:11:53.247Z,8.00
2022-11-26T18:14:57.690Z,8.00
2022-11-26T18:18:00.684Z,8.00
2022-11-26T18:21:04.172Z,8.00
2022-11-26T18:24:10.737Z,8.00
2022-11-26T18:27:13.789Z,8.00
2022-11-26T18:30:17.791Z,8.00
2022-11-26T18:33:20.736Z,8.00
2022-11-26T18:36:23.842Z,8.00
2022-11-26T18:39:28.145Z,8.00
2022-11-26T18:42:38.682Z,8.00
2022-11-26T18:45:43.144Z,8.00
2022-11-26T18:48:47.865Z,8.00
2022-11-26T18:51:50.824Z,8.00
2022-11-26T18:54:55.103Z,8.10
2022-11-26T18:57:58.017Z,8.10
2022-11-26T19:01:00.996Z,8.10
2022-11-26T19:04:04.284Z,8.10
2022-11-26T19:07:07.196Z,8.10
2022-11-26T19:10:12.734Z,8.10
2022-11-26T19:13:15.850Z,8.10
2022-11-26T19:16:22.536Z,8.10
2022-11-26T19:19:27.327Z,8.10
2022-11-26T19:22:30.311Z,8.10
2022-11-26T19:25:34.614Z,8.00
2022-11-26T19:28:37.586Z,8.00
2022-11-26T19:31:40.683Z,8.10
2022-11-26T19:34:43.620Z,8.00
2022-11-26T19:37:46.779Z,8.00
2022-11-26T19:40:56.894Z,8.00
2022-11-26T19:44:01.301Z,8.00
2022-11-26T19:47:04.557Z,8.00
2022-11-26T19:50:09.333Z,8.00
2022-11-26T19:53:12.276Z,8.00
2022-11-26T19:56:18.906Z,8.00
2022-11-26T19:59:22.040Z,7.90
2022-11-26T20:02:25.086Z,8.00
2022-11-26T20:05:28.112Z,8.00
2022-11-26T20:08:31.053Z,8.00
2022-11-26T20:11:38.401Z,8.10
2022-11-26T20:14:41.309Z,8.10
2022-11-26T20:17:44.226Z,8.00
2022-11-26T20:20:58.332Z,8.10
2022-11-26T20:24:02.864Z,8.10
2022-11-26T20:27:07.144Z,7.90
2022-11-26T20:30:11.369Z,8.00
2022-11-26T20:33:15.734Z,8.00
2022-11-26T20:36:20.956Z,8.00
2022-11-26T20:39:24.997Z,8.00
2022-11-26T20:42:29.373Z,8.00
2022-11-26T20:45:32.398Z,8.00
2022-11-26T20:48:37.188Z,8.00
2022-11-26T20:51:40.330Z,8.00
2022-11-26T20:54:43.219Z,8.00
2022-11-26T20:57:47.924Z,8.00
2022-11-26T21:00:51.036Z,8.00
2022-11-26T21:03:55.317Z,8.00
2022-11-26T21:06:58.237Z,8.00
2022-11-26T21:10:01.195Z,8.00
2022-11-26T21:13:05.468Z,8.00
2022-11-26T21:16:12.981Z,7.90
2022-11-26T21:19:16.123Z,7.90
2022-11-26T21:22:19.054Z,7.90
2022-11-26T21:25:21.930Z,7.90
2022-11-26T21:28:26.200Z,8.00
2022-11-26T21:31:31.163Z,8.00
2022-11-26T21:34:34.383Z,7.90
2022-11-26T21:37:37.303Z,7.90
2022-11-26T21:40:40.228Z,7.90
2022-11-26T21:43:45.583Z,7.90
2022-11-26T21:46:49.016Z,7.90
2022-11-26T21:49:52.022Z,7.90
2022-11-26T21:52:54.966Z,7.90
2022-11-26T21:55:57.836Z,8.00
2022-11-26T21:59:02.998Z,8.00
2022-11-26T22:02:06.275Z,8.00
2022-11-26T22:05:09.480Z,8.00
2022-11-26T22:08:12.503Z,8.00
2022-11-26T22:11:18.512Z,8.00
2022-11-26T22:14:23.076Z,8.00
2022-11-26T22:17:26.572Z,8.00
2022-11-26T22:20:29.503Z,8.00
2022-11-26T22:23:32.445Z,8.00
2022-11-26T22:26:35.854Z,8.00
2022-11-26T22:29:40.205Z,8.00
2022-11-26T22:32:43.298Z,8.00
2022-11-26T22:35:46.195Z,8.10
2022-11-26T22:38:49.143Z,8.00
2022-11-26T22:41:54.334Z,8.10
2022-11-26T22:44:58.648Z,8.10
2022-11-26T22:48:01.507Z,8.10
2022-11-26T22:51:04.590Z,8.00
2022-11-26T22:54:08.857Z,8.00
2022-11-26T22:57:11.804Z,8.00
2022-11-26T23:00:47.665Z,8.00
2022-11-26T23:03:51.185Z,8.00
2022-11-26T23:06:54.138Z,8.00
2022-11-26T23:09:57.108Z,8.00
2022-11-26T23:13:00.067Z,8.00
2022-11-26T23:16:07.399Z,7.90
2022-11-26T23:19:11.968Z,7.90
2022-11-26T23:22:14.905Z,7.90
2022-11-26T23:25:18.090Z,7.90
2022-11-26T23:28:20.975Z,7.90
2022-11-26T23:31:27.122Z,7.90
2022-11-26T23:34:30.225Z,7.90
2022-11-26T23:37:33.247Z,8.00
2022-11-26T23:40:36.146Z,8.00
2022-11-26T23:43:39.966Z,8.00
2022-11-26T23:46:44.354Z,8.00
2022-11-26T23:49:47.296Z,8.00
2022-11-26T23:52:50.184Z,8.00
2022-11-26T23:55:53.179Z,8.00
2022-11-26T23:58:57.870Z,8.00
